sensor_id;sensor_type;location;lat;lon;timestamp;temperature;humidity
11446;DHT22;5779;64.178;15.432;2023-07-31T00:00:57;12.80;99.90
11446;DHT22;5779;64.178;15.432;2023-07-31T00:03:45;12.80;99.90
11446;DHT22;5779;64.178;15.432;2023-07-31T00:06:31;12.60;99.90
11446;DHT22;5779;64.178;15.432;2023-07-31T00:09:18;12.70;99.90
11446;DHT22;5779;64.178;15.432;2023-07-31T00:12:06;12.80;99.90
11446;DHT22;5779;64.178;15.432;2023-07-31T00:14:53;12.80;99.90
11446;DHT22;5779;64.178;15.432;2023-07-31T00:17:41;12.90;99.90
11446;DHT22;5779;64.178;15.432;2023-07-31T00:20:28;13.00;99.90
11446;DHT22;5779;64.178;15.432;2023-07-31T00:23:15;13.00;99.90
11446;DHT22;5779;64.178;15.432;2023-07-31T00:26:01;12.80;99.90
11446;DHT22;5779;64.178;15.432;2023-07-31T00:28:48;12.80;99.90
11446;DHT22;5779;64.178;15.432;2023-07-31T00:31:35;12.80;99.90
11446;DHT22;5779;64.178;15.432;2023-07-31T00:34:23;12.90;99.90
11446;DHT22;5779;64.178;15.432;2023-07-31T00:37:10;12.90;99.90
11446;DHT22;5779;64.178;15.432;2023-07-31T00:39:57;12.80;99.90
11446;DHT22;5779;64.178;15.432;2023-07-31T00:42:45;12.70;99.90
11446;DHT22;5779;64.178;15.432;2023-07-31T00:45:32;12.80;99.90
11446;DHT22;5779;64.178;15.432;2023-07-31T00:48:20;12.70;99.90
11446;DHT22;5779;64.178;15.432;2023-07-31T00:51:09;12.50;99.90
11446;DHT22;5779;64.178;15.432;2023-07-31T00:53:55;12.30;99.90
11446;DHT22;5779;64.178;15.432;2023-07-31T00:56:44;12.10;99.90
11446;DHT22;5779;64.178;15.432;2023-07-31T00:59:31;12.10;99.90
11446;DHT22;5779;64.178;15.432;2023-07-31T01:02:18;12.20;99.90
11446;DHT22;5779;64.178;15.432;2023-07-31T01:05:06;12.30;99.90
11446;DHT22;5779;64.178;15.432;2023-07-31T01:08:01;12.40;99.90
11446;DHT22;5779;64.178;15.432;2023-07-31T01:10:55;12.50;99.90
11446;DHT22;5779;64.178;15.432;2023-07-31T01:13:43;12.40;99.90
11446;DHT22;5779;64.178;15.432;2023-07-31T01:16:30;12.20;99.90
11446;DHT22;5779;64.178;15.432;2023-07-31T01:19:20;12.30;99.90
11446;DHT22;5779;64.178;15.432;2023-07-31T01:22:22;12.00;99.90
11446;DHT22;5779;64.178;15.432;2023-07-31T01:25:20;12.00;99.90
11446;DHT22;5779;64.178;15.432;2023-07-31T01:28:14;12.00;99.90
11446;DHT22;5779;64.178;15.432;2023-07-31T01:31:04;12.00;99.90
11446;DHT22;5779;64.178;15.432;2023-07-31T01:33:56;11.90;99.90
11446;DHT22;5779;64.178;15.432;2023-07-31T01:36:44;11.80;99.90
11446;DHT22;5779;64.178;15.432;2023-07-31T01:39:30;11.60;99.90
11446;DHT22;5779;64.178;15.432;2023-07-31T01:42:17;11.60;99.90
11446;DHT22;5779;64.178;15.432;2023-07-31T01:45:07;11.70;99.90
11446;DHT22;5779;64.178;15.432;2023-07-31T01:47:53;11.80;99.90
11446;DHT22;5779;64.178;15.432;2023-07-31T01:50:40;11.80;99.90
11446;DHT22;5779;64.178;15.432;2023-07-31T01:53:27;11.80;99.90
11446;DHT22;5779;64.178;15.432;2023-07-31T01:56:14;11.80;99.90
11446;DHT22;5779;64.178;15.432;2023-07-31T01:59:01;11.70;99.90
11446;DHT22;5779;64.178;15.432;2023-07-31T02:01:49;11.60;99.90
11446;DHT22;5779;64.178;15.432;2023-07-31T02:04:36;11.60;99.90
11446;DHT22;5779;64.178;15.432;2023-07-31T02:07:23;11.60;99.90
11446;DHT22;5779;64.178;15.432;2023-07-31T02:10:10;11.20;99.90
11446;DHT22;5779;64.178;15.432;2023-07-31T02:12:57;11.30;99.90
11446;DHT22;5779;64.178;15.432;2023-07-31T02:15:45;11.30;99.90
11446;DHT22;5779;64.178;15.432;2023-07-31T02:18:33;11.20;99.90
11446;DHT22;5779;64.178;15.432;2023-07-31T02:21:20;11.20;99.90
11446;DHT22;5779;64.178;15.432;2023-07-31T02:24:07;11.20;99.90
11446;DHT22;5779;64.178;15.432;2023-07-31T02:26:54;11.10;99.90
11446;DHT22;5779;64.178;15.432;2023-07-31T02:29:41;11.20;99.90
11446;DHT22;5779;64.178;15.432;2023-07-31T02:32:28;11.30;99.90
11446;DHT22;5779;64.178;15.432;2023-07-31T02:35:17;11.30;99.90
11446;DHT22;5779;64.178;15.432;2023-07-31T02:38:03;11.20;99.90
11446;DHT22;5779;64.178;15.432;2023-07-31T02:40:50;11.30;99.90
11446;DHT22;5779;64.178;15.432;2023-07-31T02:43:37;11.10;99.90
11446;DHT22;5779;64.178;15.432;2023-07-31T02:46:24;11.10;99.90
11446;DHT22;5779;64.178;15.432;2023-07-31T02:49:11;11.10;99.90
11446;DHT22;5779;64.178;15.432;2023-07-31T02:51:59;11.20;99.90
11446;DHT22;5779;64.178;15.432;2023-07-31T02:54:46;11.40;99.90
11446;DHT22;5779;64.178;15.432;2023-07-31T02:57:33;11.50;99.90
11446;DHT22;5779;64.178;15.432;2023-07-31T03:00:20;11.50;99.90
11446;DHT22;5779;64.178;15.432;2023-07-31T03:03:07;11.70;99.90
11446;DHT22;5779;64.178;15.432;2023-07-31T03:05:53;11.70;99.90
11446;DHT22;5779;64.178;15.432;2023-07-31T03:08:42;11.70;99.90
11446;DHT22;5779;64.178;15.432;2023-07-31T03:11:29;11.80;99.90
11446;DHT22;5779;64.178;15.432;2023-07-31T03:14:16;12.00;99.90
11446;DHT22;5779;64.178;15.432;2023-07-31T03:17:03;12.30;99.90
11446;DHT22;5779;64.178;15.432;2023-07-31T03:19:50;12.40;99.90
11446;DHT22;5779;64.178;15.432;2023-07-31T03:22:37;12.30;99.90
11446;DHT22;5779;64.178;15.432;2023-07-31T03:25:25;12.50;99.90
11446;DHT22;5779;64.178;15.432;2023-07-31T03:28:14;12.70;99.90
11446;DHT22;5779;64.178;15.432;2023-07-31T03:31:01;13.00;99.90
11446;DHT22;5779;64.178;15.432;2023-07-31T03:33:47;13.20;99.90
11446;DHT22;5779;64.178;15.432;2023-07-31T03:36:34;13.30;99.90
11446;DHT22;5779;64.178;15.432;2023-07-31T03:39:21;13.40;99.90
11446;DHT22;5779;64.178;15.432;2023-07-31T03:42:09;13.60;99.90
11446;DHT22;5779;64.178;15.432;2023-07-31T03:44:56;13.80;99.90
11446;DHT22;5779;64.178;15.432;2023-07-31T03:47:43;14.00;99.90
11446;DHT22;5779;64.178;15.432;2023-07-31T03:50:30;14.10;99.90
11446;DHT22;5779;64.178;15.432;2023-07-31T03:53:17;14.20;99.90
11446;DHT22;5779;64.178;15.432;2023-07-31T03:56:04;14.20;99.90
11446;DHT22;5779;64.178;15.432;2023-07-31T03:58:53;14.30;99.90
11446;DHT22;5779;64.178;15.432;2023-07-31T04:01:39;14.40;99.90
11446;DHT22;5779;64.178;15.432;2023-07-31T04:04:26;14.50;99.90
11446;DHT22;5779;64.178;15.432;2023-07-31T04:07:13;14.50;99.90
11446;DHT22;5779;64.178;15.432;2023-07-31T04:10:00;14.60;99.90
11446;DHT22;5779;64.178;15.432;2023-07-31T04:12:46;14.70;99.90
11446;DHT22;5779;64.178;15.432;2023-07-31T04:15:35;14.60;99.90
11446;DHT22;5779;64.178;15.432;2023-07-31T04:18:24;14.60;99.90
11446;DHT22;5779;64.178;15.432;2023-07-31T04:21:10;14.60;99.90
11446;DHT22;5779;64.178;15.432;2023-07-31T04:23:57;14.70;99.90
11446;DHT22;5779;64.178;15.432;2023-07-31T04:26:44;14.80;99.90
11446;DHT22;5779;64.178;15.432;2023-07-31T04:29:31;14.90;99.90
11446;DHT22;5779;64.178;15.432;2023-07-31T04:32:20;15.00;99.90
11446;DHT22;5779;64.178;15.432;2023-07-31T04:35:07;15.00;99.90
11446;DHT22;5779;64.178;15.432;2023-07-31T04:37:54;15.00;99.90
11446;DHT22;5779;64.178;15.432;2023-07-31T04:40:40;15.10;99.90
11446;DHT22;5779;64.178;15.432;2023-07-31T04:43:27;15.10;99.90
11446;DHT22;5779;64.178;15.432;2023-07-31T04:46:14;15.20;99.90
11446;DHT22;5779;64.178;15.432;2023-07-31T04:49:02;15.30;99.90
11446;DHT22;5779;64.178;15.432;2023-07-31T04:51:49;15.30;99.90
11446;DHT22;5779;64.178;15.432;2023-07-31T04:54:36;15.40;99.90
11446;DHT22;5779;64.178;15.432;2023-07-31T04:57:23;15.40;99.90
11446;DHT22;5779;64.178;15.432;2023-07-31T05:00:10;15.40;99.90
11446;DHT22;5779;64.178;15.432;2023-07-31T05:02:57;15.50;99.90
11446;DHT22;5779;64.178;15.432;2023-07-31T05:05:45;15.40;99.90
11446;DHT22;5779;64.178;15.432;2023-07-31T05:08:32;15.50;99.90
11446;DHT22;5779;64.178;15.432;2023-07-31T05:11:19;15.50;99.90
11446;DHT22;5779;64.178;15.432;2023-07-31T05:14:06;15.60;99.90
11446;DHT22;5779;64.178;15.432;2023-07-31T05:16:53;15.60;99.90
11446;DHT22;5779;64.178;15.432;2023-07-31T05:19:40;15.60;99.90
11446;DHT22;5779;64.178;15.432;2023-07-31T05:22:28;15.70;99.90
11446;DHT22;5779;64.178;15.432;2023-07-31T05:25:15;15.60;99.90
11446;DHT22;5779;64.178;15.432;2023-07-31T05:28:02;15.60;99.90
11446;DHT22;5779;64.178;15.432;2023-07-31T05:30:48;15.70;99.90
11446;DHT22;5779;64.178;15.432;2023-07-31T05:33:35;15.80;99.90
11446;DHT22;5779;64.178;15.432;2023-07-31T05:36:22;15.70;99.90
11446;DHT22;5779;64.178;15.432;2023-07-31T05:39:10;15.80;99.90
11446;DHT22;5779;64.178;15.432;2023-07-31T05:41:57;15.80;99.90
11446;DHT22;5779;64.178;15.432;2023-07-31T05:44:44;15.80;99.90
11446;DHT22;5779;64.178;15.432;2023-07-31T05:47:32;15.70;99.90
11446;DHT22;5779;64.178;15.432;2023-07-31T05:50:18;15.80;99.90
11446;DHT22;5779;64.178;15.432;2023-07-31T05:53:05;15.80;99.90
11446;DHT22;5779;64.178;15.432;2023-07-31T05:55:54;15.80;99.90
11446;DHT22;5779;64.178;15.432;2023-07-31T05:58:41;15.80;99.90
11446;DHT22;5779;64.178;15.432;2023-07-31T06:01:28;16.00;99.90
11446;DHT22;5779;64.178;15.432;2023-07-31T06:04:14;16.00;99.90
11446;DHT22;5779;64.178;15.432;2023-07-31T06:07:01;16.10;99.90
11446;DHT22;5779;64.178;15.432;2023-07-31T06:09:49;16.20;99.90
11446;DHT22;5779;64.178;15.432;2023-07-31T06:12:37;16.20;99.90
11446;DHT22;5779;64.178;15.432;2023-07-31T06:15:24;16.30;99.90
11446;DHT22;5779;64.178;15.432;2023-07-31T06:18:10;16.50;99.90
11446;DHT22;5779;64.178;15.432;2023-07-31T06:20:57;16.60;99.90
11446;DHT22;5779;64.178;15.432;2023-07-31T06:23:44;16.70;99.90
11446;DHT22;5779;64.178;15.432;2023-07-31T06:26:31;16.70;99.90
11446;DHT22;5779;64.178;15.432;2023-07-31T06:29:20;16.70;99.90
11446;DHT22;5779;64.178;15.432;2023-07-31T06:32:07;16.90;99.90
11446;DHT22;5779;64.178;15.432;2023-07-31T06:34:54;16.90;99.90
11446;DHT22;5779;64.178;15.432;2023-07-31T06:37:41;16.90;99.90
11446;DHT22;5779;64.178;15.432;2023-07-31T06:40:29;16.90;99.90
11446;DHT22;5779;64.178;15.432;2023-07-31T06:43:16;16.80;99.90
11446;DHT22;5779;64.178;15.432;2023-07-31T06:46:06;16.80;99.90
11446;DHT22;5779;64.178;15.432;2023-07-31T06:48:53;16.90;99.90
11446;DHT22;5779;64.178;15.432;2023-07-31T06:51:40;16.80;99.90
11446;DHT22;5779;64.178;15.432;2023-07-31T06:54:27;16.80;99.90
11446;DHT22;5779;64.178;15.432;2023-07-31T06:57:14;16.90;99.90
11446;DHT22;5779;64.178;15.432;2023-07-31T07:00:01;17.00;99.90
11446;DHT22;5779;64.178;15.432;2023-07-31T07:02:51;17.10;99.90
11446;DHT22;5779;64.178;15.432;2023-07-31T07:05:38;17.00;99.90
11446;DHT22;5779;64.178;15.432;2023-07-31T07:08:25;17.00;99.90
11446;DHT22;5779;64.178;15.432;2023-07-31T07:11:12;17.00;99.90
11446;DHT22;5779;64.178;15.432;2023-07-31T07:13:59;17.00;99.90
11446;DHT22;5779;64.178;15.432;2023-07-31T07:16:45;17.30;99.90
11446;DHT22;5779;64.178;15.432;2023-07-31T07:19:40;17.50;99.90
11446;DHT22;5779;64.178;15.432;2023-07-31T07:22:28;17.70;99.90
11446;DHT22;5779;64.178;15.432;2023-07-31T07:25:14;17.70;99.90
11446;DHT22;5779;64.178;15.432;2023-07-31T07:28:01;17.80;99.90
11446;DHT22;5779;64.178;15.432;2023-07-31T07:30:51;17.80;99.90
11446;DHT22;5779;64.178;15.432;2023-07-31T07:33:38;17.80;99.90
11446;DHT22;5779;64.178;15.432;2023-07-31T07:36:27;17.80;99.90
11446;DHT22;5779;64.178;15.432;2023-07-31T07:39:14;17.60;99.90
11446;DHT22;5779;64.178;15.432;2023-07-31T07:42:01;17.60;99.90
11446;DHT22;5779;64.178;15.432;2023-07-31T07:44:49;17.60;99.90
11446;DHT22;5779;64.178;15.432;2023-07-31T07:47:35;17.50;99.90
11446;DHT22;5779;64.178;15.432;2023-07-31T07:50:22;17.60;99.90
11446;DHT22;5779;64.178;15.432;2023-07-31T07:53:10;17.80;99.90
11446;DHT22;5779;64.178;15.432;2023-07-31T07:55:57;17.80;99.90
11446;DHT22;5779;64.178;15.432;2023-07-31T07:58:44;17.90;99.90
11446;DHT22;5779;64.178;15.432;2023-07-31T08:01:31;18.10;99.90
11446;DHT22;5779;64.178;15.432;2023-07-31T08:04:17;18.20;99.90
11446;DHT22;5779;64.178;15.432;2023-07-31T08:07:05;18.10;99.90
11446;DHT22;5779;64.178;15.432;2023-07-31T08:09:53;18.20;99.90
11446;DHT22;5779;64.178;15.432;2023-07-31T08:12:40;18.20;99.90
11446;DHT22;5779;64.178;15.432;2023-07-31T08:15:27;18.40;99.90
11446;DHT22;5779;64.178;15.432;2023-07-31T08:18:14;18.40;99.90
11446;DHT22;5779;64.178;15.432;2023-07-31T08:21:02;18.60;99.90
11446;DHT22;5779;64.178;15.432;2023-07-31T08:23:49;18.50;99.90
11446;DHT22;5779;64.178;15.432;2023-07-31T08:26:37;18.50;99.90
11446;DHT22;5779;64.178;15.432;2023-07-31T08:29:25;18.70;99.90
11446;DHT22;5779;64.178;15.432;2023-07-31T08:32:11;18.70;99.90
11446;DHT22;5779;64.178;15.432;2023-07-31T08:34:58;18.60;99.90
11446;DHT22;5779;64.178;15.432;2023-07-31T08:37:45;18.70;99.90
11446;DHT22;5779;64.178;15.432;2023-07-31T08:40:32;19.00;99.90
11446;DHT22;5779;64.178;15.432;2023-07-31T08:43:20;19.20;99.90
11446;DHT22;5779;64.178;15.432;2023-07-31T08:46:09;19.20;99.90
11446;DHT22;5779;64.178;15.432;2023-07-31T08:48:56;19.20;99.90
11446;DHT22;5779;64.178;15.432;2023-07-31T08:51:43;19.20;99.90
11446;DHT22;5779;64.178;15.432;2023-07-31T08:54:32;19.10;99.90
11446;DHT22;5779;64.178;15.432;2023-07-31T08:57:18;19.00;99.90
11446;DHT22;5779;64.178;15.432;2023-07-31T09:00:09;18.80;99.90
11446;DHT22;5779;64.178;15.432;2023-07-31T09:03:01;18.80;99.90
11446;DHT22;5779;64.178;15.432;2023-07-31T09:05:50;18.80;99.90
11446;DHT22;5779;64.178;15.432;2023-07-31T09:08:39;18.90;99.90
11446;DHT22;5779;64.178;15.432;2023-07-31T09:11:27;19.00;99.90
11446;DHT22;5779;64.178;15.432;2023-07-31T09:14:15;18.90;99.90
11446;DHT22;5779;64.178;15.432;2023-07-31T09:17:04;18.70;99.90
11446;DHT22;5779;64.178;15.432;2023-07-31T09:19:51;18.70;99.90
11446;DHT22;5779;64.178;15.432;2023-07-31T09:22:38;18.70;99.90
11446;DHT22;5779;64.178;15.432;2023-07-31T09:25:25;18.90;99.90
11446;DHT22;5779;64.178;15.432;2023-07-31T09:28:12;19.20;99.90
11446;DHT22;5779;64.178;15.432;2023-07-31T09:30:59;19.10;99.90
11446;DHT22;5779;64.178;15.432;2023-07-31T09:33:55;18.90;99.90
11446;DHT22;5779;64.178;15.432;2023-07-31T09:36:42;19.10;99.90
11446;DHT22;5779;64.178;15.432;2023-07-31T09:50:53;19.50;99.90
11446;DHT22;5779;64.178;15.432;2023-07-31T09:53:40;19.40;99.90
11446;DHT22;5779;64.178;15.432;2023-07-31T09:56:27;19.40;99.90
11446;DHT22;5779;64.178;15.432;2023-07-31T09:59:16;19.40;99.90
11446;DHT22;5779;64.178;15.432;2023-07-31T10:02:04;19.40;99.90
11446;DHT22;5779;64.178;15.432;2023-07-31T10:04:57;19.50;99.90
11446;DHT22;5779;64.178;15.432;2023-07-31T10:07:51;19.60;99.90
11446;DHT22;5779;64.178;15.432;2023-07-31T10:10:41;19.50;99.90
11446;DHT22;5779;64.178;15.432;2023-07-31T10:13:29;19.30;99.90
11446;DHT22;5779;64.178;15.432;2023-07-31T10:16:17;19.10;99.90
11446;DHT22;5779;64.178;15.432;2023-07-31T10:19:05;19.00;99.90
11446;DHT22;5779;64.178;15.432;2023-07-31T10:21:53;18.90;99.90
11446;DHT22;5779;64.178;15.432;2023-07-31T10:24:43;18.50;99.90
11446;DHT22;5779;64.178;15.432;2023-07-31T10:27:31;18.00;99.90
11446;DHT22;5779;64.178;15.432;2023-07-31T10:30:22;17.90;99.90
11446;DHT22;5779;64.178;15.432;2023-07-31T10:33:09;17.80;99.90
11446;DHT22;5779;64.178;15.432;2023-07-31T10:36:14;17.80;99.90
11446;DHT22;5779;64.178;15.432;2023-07-31T10:39:04;17.80;99.90
11446;DHT22;5779;64.178;15.432;2023-07-31T10:42:13;18.20;99.90
11446;DHT22;5779;64.178;15.432;2023-07-31T10:45:03;18.60;99.90
11446;DHT22;5779;64.178;15.432;2023-07-31T10:47:58;18.90;99.90
11446;DHT22;5779;64.178;15.432;2023-07-31T10:50:48;19.40;99.90
11446;DHT22;5779;64.178;15.432;2023-07-31T10:53:35;19.30;99.90
11446;DHT22;5779;64.178;15.432;2023-07-31T10:56:25;19.40;99.90
11446;DHT22;5779;64.178;15.432;2023-07-31T10:59:14;19.70;99.90
11446;DHT22;5779;64.178;15.432;2023-07-31T11:02:03;19.70;99.90
11446;DHT22;5779;64.178;15.432;2023-07-31T11:05:06;19.90;99.90
11446;DHT22;5779;64.178;15.432;2023-07-31T11:08:10;19.80;99.90
11446;DHT22;5779;64.178;15.432;2023-07-31T11:11:08;19.90;99.90
11446;DHT22;5779;64.178;15.432;2023-07-31T11:13:55;19.90;99.90
11446;DHT22;5779;64.178;15.432;2023-07-31T11:16:44;19.70;99.90
11446;DHT22;5779;64.178;15.432;2023-07-31T11:19:31;19.80;99.90
11446;DHT22;5779;64.178;15.432;2023-07-31T11:22:17;20.20;99.90
11446;DHT22;5779;64.178;15.432;2023-07-31T11:25:05;20.60;99.90
11446;DHT22;5779;64.178;15.432;2023-07-31T11:27:52;20.50;99.90
11446;DHT22;5779;64.178;15.432;2023-07-31T11:30:39;20.40;99.90
11446;DHT22;5779;64.178;15.432;2023-07-31T11:33:28;20.10;99.90
11446;DHT22;5779;64.178;15.432;2023-07-31T11:36:15;20.00;99.90
11446;DHT22;5779;64.178;15.432;2023-07-31T11:39:05;20.10;99.90
11446;DHT22;5779;64.178;15.432;2023-07-31T11:41:58;19.70;99.90
11446;DHT22;5779;64.178;15.432;2023-07-31T11:44:46;19.60;99.90
11446;DHT22;5779;64.178;15.432;2023-07-31T11:47:34;19.30;99.90
11446;DHT22;5779;64.178;15.432;2023-07-31T11:50:22;19.50;99.90
11446;DHT22;5779;64.178;15.432;2023-07-31T11:53:11;19.90;99.90
11446;DHT22;5779;64.178;15.432;2023-07-31T11:55:59;20.10;99.90
11446;DHT22;5779;64.178;15.432;2023-07-31T11:58:48;20.20;99.90
11446;DHT22;5779;64.178;15.432;2023-07-31T12:01:36;20.50;99.90
11446;DHT22;5779;64.178;15.432;2023-07-31T12:04:24;20.60;99.90
11446;DHT22;5779;64.178;15.432;2023-07-31T12:07:12;20.70;99.90
11446;DHT22;5779;64.178;15.432;2023-07-31T12:09:58;20.80;99.90
11446;DHT22;5779;64.178;15.432;2023-07-31T12:12:58;20.50;99.90
11446;DHT22;5779;64.178;15.432;2023-07-31T12:15:46;20.20;99.90
11446;DHT22;5779;64.178;15.432;2023-07-31T12:18:35;20.10;99.90
11446;DHT22;5779;64.178;15.432;2023-07-31T12:21:22;20.10;99.90
11446;DHT22;5779;64.178;15.432;2023-07-31T12:24:10;20.40;99.90
11446;DHT22;5779;64.178;15.432;2023-07-31T12:26:57;20.70;99.90
11446;DHT22;5779;64.178;15.432;2023-07-31T12:29:44;20.80;99.90
11446;DHT22;5779;64.178;15.432;2023-07-31T12:32:31;20.60;99.90
11446;DHT22;5779;64.178;15.432;2023-07-31T12:35:18;20.70;99.90
11446;DHT22;5779;64.178;15.432;2023-07-31T12:38:04;20.30;99.90
11446;DHT22;5779;64.178;15.432;2023-07-31T12:40:53;20.60;99.90
11446;DHT22;5779;64.178;15.432;2023-07-31T12:43:40;20.70;99.90
11446;DHT22;5779;64.178;15.432;2023-07-31T12:46:30;20.70;99.90
11446;DHT22;5779;64.178;15.432;2023-07-31T12:49:17;20.70;99.90
11446;DHT22;5779;64.178;15.432;2023-07-31T12:52:04;20.60;99.90
11446;DHT22;5779;64.178;15.432;2023-07-31T12:54:51;20.60;99.90
11446;DHT22;5779;64.178;15.432;2023-07-31T12:57:40;20.20;99.90
11446;DHT22;5779;64.178;15.432;2023-07-31T13:00:27;20.20;99.90
11446;DHT22;5779;64.178;15.432;2023-07-31T13:03:15;20.20;99.90
11446;DHT22;5779;64.178;15.432;2023-07-31T13:06:02;20.20;99.90
11446;DHT22;5779;64.178;15.432;2023-07-31T13:08:50;20.50;99.90
11446;DHT22;5779;64.178;15.432;2023-07-31T13:11:39;20.80;99.90
11446;DHT22;5779;64.178;15.432;2023-07-31T13:14:33;21.10;99.90
11446;DHT22;5779;64.178;15.432;2023-07-31T13:17:21;21.10;99.90
11446;DHT22;5779;64.178;15.432;2023-07-31T13:20:12;21.00;99.90
11446;DHT22;5779;64.178;15.432;2023-07-31T13:23:01;21.30;99.90
11446;DHT22;5779;64.178;15.432;2023-07-31T13:25:47;20.90;99.90
11446;DHT22;5779;64.178;15.432;2023-07-31T13:28:34;20.80;99.90
11446;DHT22;5779;64.178;15.432;2023-07-31T13:31:22;20.90;99.90
11446;DHT22;5779;64.178;15.432;2023-07-31T13:34:09;21.50;99.90
11446;DHT22;5779;64.178;15.432;2023-07-31T13:36:56;21.60;99.90
11446;DHT22;5779;64.178;15.432;2023-07-31T13:39:43;21.90;99.90
11446;DHT22;5779;64.178;15.432;2023-07-31T13:42:29;21.80;99.90
11446;DHT22;5779;64.178;15.432;2023-07-31T13:45:16;21.30;99.90
11446;DHT22;5779;64.178;15.432;2023-07-31T13:48:05;21.20;99.90
11446;DHT22;5779;64.178;15.432;2023-07-31T13:50:52;21.20;99.90
11446;DHT22;5779;64.178;15.432;2023-07-31T13:53:39;21.00;99.90
11446;DHT22;5779;64.178;15.432;2023-07-31T13:56:26;20.60;99.90
11446;DHT22;5779;64.178;15.432;2023-07-31T13:59:12;20.70;99.90
11446;DHT22;5779;64.178;15.432;2023-07-31T14:02:02;20.90;99.90
11446;DHT22;5779;64.178;15.432;2023-07-31T14:04:50;20.80;99.90
11446;DHT22;5779;64.178;15.432;2023-07-31T14:07:37;20.50;99.90
11446;DHT22;5779;64.178;15.432;2023-07-31T14:10:24;20.00;99.90
11446;DHT22;5779;64.178;15.432;2023-07-31T14:13:11;20.00;99.90
11446;DHT22;5779;64.178;15.432;2023-07-31T14:15:58;19.70;99.90
11446;DHT22;5779;64.178;15.432;2023-07-31T14:18:45;19.50;99.90
11446;DHT22;5779;64.178;15.432;2023-07-31T14:21:33;19.60;99.90
11446;DHT22;5779;64.178;15.432;2023-07-31T14:24:20;19.60;99.90
11446;DHT22;5779;64.178;15.432;2023-07-31T14:27:07;20.00;99.90
11446;DHT22;5779;64.178;15.432;2023-07-31T14:29:54;20.00;99.90
11446;DHT22;5779;64.178;15.432;2023-07-31T14:32:42;19.40;99.90
11446;DHT22;5779;64.178;15.432;2023-07-31T14:35:29;19.00;99.90
11446;DHT22;5779;64.178;15.432;2023-07-31T14:38:18;18.80;99.90
11446;DHT22;5779;64.178;15.432;2023-07-31T14:41:04;18.70;99.90
11446;DHT22;5779;64.178;15.432;2023-07-31T14:43:51;18.60;99.90
11446;DHT22;5779;64.178;15.432;2023-07-31T14:46:38;18.40;99.90
11446;DHT22;5779;64.178;15.432;2023-07-31T14:49:25;18.20;99.90
11446;DHT22;5779;64.178;15.432;2023-07-31T14:52:13;18.30;99.90
11446;DHT22;5779;64.178;15.432;2023-07-31T14:55:02;18.80;99.90
11446;DHT22;5779;64.178;15.432;2023-07-31T14:57:48;19.50;99.90
11446;DHT22;5779;64.178;15.432;2023-07-31T15:00:35;19.80;99.90
11446;DHT22;5779;64.178;15.432;2023-07-31T15:03:22;19.50;99.90
11446;DHT22;5779;64.178;15.432;2023-07-31T15:06:10;19.30;99.90
11446;DHT22;5779;64.178;15.432;2023-07-31T15:08:57;19.70;99.90
11446;DHT22;5779;64.178;15.432;2023-07-31T15:11:46;20.30;99.90
11446;DHT22;5779;64.178;15.432;2023-07-31T15:14:33;20.10;99.90
11446;DHT22;5779;64.178;15.432;2023-07-31T15:17:19;19.80;99.90
11446;DHT22;5779;64.178;15.432;2023-07-31T15:20:07;19.70;99.90
11446;DHT22;5779;64.178;15.432;2023-07-31T15:22:55;19.10;99.90
11446;DHT22;5779;64.178;15.432;2023-07-31T15:25:42;18.90;99.90
11446;DHT22;5779;64.178;15.432;2023-07-31T15:28:31;18.90;99.90
11446;DHT22;5779;64.178;15.432;2023-07-31T15:31:19;19.00;99.90
11446;DHT22;5779;64.178;15.432;2023-07-31T15:34:07;19.00;99.90
11446;DHT22;5779;64.178;15.432;2023-07-31T15:36:54;19.00;99.90
11446;DHT22;5779;64.178;15.432;2023-07-31T15:39:41;19.00;99.90
11446;DHT22;5779;64.178;15.432;2023-07-31T15:42:28;19.10;99.90
11446;DHT22;5779;64.178;15.432;2023-07-31T15:45:17;19.10;99.90
11446;DHT22;5779;64.178;15.432;2023-07-31T15:48:04;19.10;99.90
11446;DHT22;5779;64.178;15.432;2023-07-31T15:50:51;19.10;99.90
11446;DHT22;5779;64.178;15.432;2023-07-31T15:53:39;19.10;99.90
11446;DHT22;5779;64.178;15.432;2023-07-31T15:56:26;19.00;99.90
11446;DHT22;5779;64.178;15.432;2023-07-31T15:59:12;18.70;99.90
11446;DHT22;5779;64.178;15.432;2023-07-31T16:02:01;18.70;99.90
11446;DHT22;5779;64.178;15.432;2023-07-31T16:04:48;18.70;99.90
11446;DHT22;5779;64.178;15.432;2023-07-31T16:07:35;18.70;99.90
11446;DHT22;5779;64.178;15.432;2023-07-31T16:10:22;18.70;99.90
11446;DHT22;5779;64.178;15.432;2023-07-31T16:13:09;18.80;99.90
11446;DHT22;5779;64.178;15.432;2023-07-31T16:15:56;18.80;99.90
11446;DHT22;5779;64.178;15.432;2023-07-31T16:18:44;18.60;99.90
11446;DHT22;5779;64.178;15.432;2023-07-31T16:21:31;18.60;99.90
11446;DHT22;5779;64.178;15.432;2023-07-31T16:24:18;18.70;99.90
11446;DHT22;5779;64.178;15.432;2023-07-31T16:27:05;18.70;99.90
11446;DHT22;5779;64.178;15.432;2023-07-31T16:29:52;18.80;99.90
11446;DHT22;5779;64.178;15.432;2023-07-31T16:32:41;18.80;99.90
11446;DHT22;5779;64.178;15.432;2023-07-31T16:35:30;18.60;99.90
11446;DHT22;5779;64.178;15.432;2023-07-31T16:38:17;18.50;99.90
11446;DHT22;5779;64.178;15.432;2023-07-31T16:41:03;18.40;99.90
11446;DHT22;5779;64.178;15.432;2023-07-31T16:43:51;18.50;99.90
11446;DHT22;5779;64.178;15.432;2023-07-31T16:46:38;18.50;99.90
11446;DHT22;5779;64.178;15.432;2023-07-31T16:49:25;18.40;99.90
11446;DHT22;5779;64.178;15.432;2023-07-31T16:52:13;18.30;99.90
11446;DHT22;5779;64.178;15.432;2023-07-31T16:55:00;18.30;99.90
11446;DHT22;5779;64.178;15.432;2023-07-31T16:57:48;18.20;99.90
11446;DHT22;5779;64.178;15.432;2023-07-31T17:00:41;18.30;99.90
11446;DHT22;5779;64.178;15.432;2023-07-31T17:03:30;18.10;99.90
11446;DHT22;5779;64.178;15.432;2023-07-31T17:06:18;18.00;99.90
11446;DHT22;5779;64.178;15.432;2023-07-31T17:09:06;18.00;99.90
11446;DHT22;5779;64.178;15.432;2023-07-31T17:11:54;18.10;99.90
11446;DHT22;5779;64.178;15.432;2023-07-31T17:14:45;18.00;99.90
11446;DHT22;5779;64.178;15.432;2023-07-31T17:17:31;18.00;99.90
11446;DHT22;5779;64.178;15.432;2023-07-31T17:20:18;18.10;99.90
11446;DHT22;5779;64.178;15.432;2023-07-31T17:23:05;18.20;99.90
11446;DHT22;5779;64.178;15.432;2023-07-31T17:25:53;18.00;99.90
11446;DHT22;5779;64.178;15.432;2023-07-31T17:28:40;18.00;99.90
11446;DHT22;5779;64.178;15.432;2023-07-31T17:31:28;17.90;99.90
11446;DHT22;5779;64.178;15.432;2023-07-31T17:34:15;17.80;99.90
11446;DHT22;5779;64.178;15.432;2023-07-31T17:37:02;17.80;99.90
11446;DHT22;5779;64.178;15.432;2023-07-31T17:39:49;17.70;99.90
11446;DHT22;5779;64.178;15.432;2023-07-31T17:42:37;17.70;99.90
11446;DHT22;5779;64.178;15.432;2023-07-31T17:45:24;17.70;99.90
11446;DHT22;5779;64.178;15.432;2023-07-31T17:48:11;17.70;99.90
11446;DHT22;5779;64.178;15.432;2023-07-31T17:50:58;17.60;99.90